Podhale (bahama Islands) — C6TX9 — position and weather

sailwx.info

Track history (hours):
 
Tides and Currents Weather Stations Pressure Air Temp Water Temp Dewpoint Dewpoint Depression Visibility Wind Speed Wind Dir Waves Ship Positions

Podhale (bahama Islands)

Last reported at 2015-Feb-21 17:31 UTC. Time now 2015-Mar-02 18:59 UTC.
Position N 36°45' E 026°27'.
Warning: this ship's position is 9 days out of date.

Length 190 m; beam 24 m.

Type: Cargo ship. MMSI: 311831000.

Date/timePositionNaut miles runAvg speedWind from/ knotsBaromVisibWave heightAir tempDewpointWater temp
2015-Feb-21 17:31N 36°45' E 026°27'3411.3
2015-Feb-21 14:32N 37°14' E 026°06'1211.2
2015-Feb-21 13:29N 37°25' E 025°59'242 9.3
2015-Feb-20 11:33N 40°53' E 028°38'1211.3
2015-Feb-20 10:30N 40°55' E 028°54'1511.1
2015-Feb-20 09:07N 41°09' E 029°03'710.0
2015-Feb-20 08:27N 41°15' E 029°08'9 0.9
2015-Feb-19 22:33N 41°23' E 029°04'1 0.8
2015-Feb-19 21:32N 41°23' E 029°04'1 0.8
2015-Feb-19 20:33N 41°24' E 029°05'1 0.9
2015-Feb-19 19:31N 41°25' E 029°05'3 0.9
2015-Feb-19 16:27N 41°22' E 029°06'4 4.3
2015-Feb-19 15:32N 41°26' E 029°08'1 0.2
2015-Feb-19 08:33N 41°25' E 029°09'2 2.2
2015-Feb-19 07:27N 41°22' E 029°09'328 8.4
2015-Feb-17 16:32N 46°35' E 031°26'10 9.4
2015-Feb-17 15:31N 46°36' E 031°39'9 9.8
2015-Feb-17 14:33N 46°37' E 031°53'8 8.4
2015-Feb-17 13:33N 46°46' E 031°54'4 4.2
2015-Feb-17 12:33N 46°50' E 031°55'0 0.0
2015-Feb-17 11:33N 46°50' E 031°55'0 0.0
2015-Feb-17 10:33N 46°50' E 031°55'1 0.9
2015-Feb-17 09:34N 46°50' E 031°56'2 1.8
2015-Feb-17 08:33N 46°51' E 031°59'0 0.0
2015-Feb-17 07:32N 46°51' E 031°59'0 0.0
2015-Feb-17 06:32N 46°51' E 031°59'0 0.0
2015-Feb-17 05:32N 46°51' E 031°59'0 0.0
2015-Feb-17 04:32N 46°51' E 031°59'0 0.0
2015-Feb-17 03:32N 46°51' E 031°59'0 0.0
2015-Feb-17 02:29N 46°51' E 031°59'0 0.0
2015-Feb-17 01:25N 46°51' E 031°59'0 0.0
2015-Feb-17 00:32N 46°51' E 031°59'0 0.0
2015-Feb-16 23:32N 46°51' E 031°59'0 0.0
2015-Feb-16 22:32N 46°51' E 031°59'0 0.0
2015-Feb-16 21:32N 46°51' E 031°59'0 0.0
2015-Feb-16 20:31N 46°51' E 031°59'0 0.0
2015-Feb-16 19:32N 46°51' E 031°59'0 0.0
2015-Feb-16 18:31N 46°51' E 031°59'0 0.0
2015-Feb-16 17:31N 46°51' E 031°59'0 0.0
2015-Feb-16 16:31N 46°51' E 031°59'0 0.0
2015-Feb-16 15:31N 46°51' E 031°59'0 0.0
2015-Feb-16 14:31N 46°51' E 031°59'0 0.0
2015-Feb-16 13:31N 46°51' E 031°59'0 0.0
2015-Feb-16 12:31N 46°51' E 031°59'0 0.0
2015-Feb-16 11:31N 46°51' E 031°59'0 0.0
2015-Feb-16 10:29N 46°51' E 031°59'0 0.0
2015-Feb-16 09:31N 46°51' E 031°59'0 0.0
2015-Feb-16 08:31N 46°51' E 031°59'0 0.0
2015-Feb-16 07:31N 46°51' E 031°59'0 0.0
2015-Feb-16 06:32N 46°51' E 031°59'0 0.0
2015-Feb-16 05:31N 46°51' E 031°59'0 0.0
2015-Feb-16 04:31N 46°51' E 031°59'0 0.0
2015-Feb-16 03:31N 46°51' E 031°59'0 0.0
2015-Feb-16 02:31N 46°51' E 031°59'0 0.0
2015-Feb-16 01:31N 46°51' E 031°59'0 0.0
2015-Feb-16 00:31N 46°51' E 031°59'0 0.0
2015-Feb-15 23:31N 46°51' E 031°59'0 0.0
2015-Feb-15 22:31N 46°51' E 031°59'0 0.0
2015-Feb-15 21:31N 46°51' E 031°59'0 0.0
2015-Feb-15 20:31N 46°51' E 031°59'0 0.0
2015-Feb-15 19:31N 46°51' E 031°59'0 0.0
2015-Feb-15 18:31N 46°51' E 031°59'0 0.0
2015-Feb-15 17:31N 46°51' E 031°59'0 0.0
2015-Feb-15 16:31N 46°51' E 031°59'0 0.0
2015-Feb-15 15:32N 46°51' E 031°59'0 0.0
2015-Feb-15 14:31N 46°51' E 031°59'0 0.0
2015-Feb-15 13:31N 46°51' E 031°59'0 0.0
2015-Feb-15 12:28N 46°51' E 031°59'0 0.0
2015-Feb-15 11:31N 46°51' E 031°59'0 0.0
2015-Feb-15 10:31N 46°51' E 031°59'0 0.0
2015-Feb-15 09:31N 46°51' E 031°59'0 0.0
2015-Feb-15 08:31N 46°51' E 031°59'0 0.0
2015-Feb-15 07:31N 46°51' E 031°59'0 0.0
2015-Feb-15 06:33N 46°51' E 031°59'4 3.5
2015-Feb-15 05:33N 46°49' E 031°55'1010.0
2015-Feb-15 04:34N 46°39' E 031°56'1111.4
2015-Feb-15 03:33N 46°36' E 031°40'1010.4
2015-Feb-15 02:33N 46°34' E 031°25'0 0.4
2015-Feb-15 01:22N 46°34' E 031°25'0 0.0
2015-Feb-15 00:28N 46°34' E 031°25'0 0.0
2015-Feb-14 23:28N 46°34' E 031°25'0 0.0
2015-Feb-14 22:28N 46°34' E 031°25'0 0.0
2015-Feb-14 21:31N 46°34' E 031°25'0 0.0
2015-Feb-14 20:25N 46°34' E 031°25'31110.8
2015-Feb-13 15:32N 41°37' E 029°19'1212.7
2015-Feb-13 14:33N 41°24' E 029°16'  
Track history (hours):
 
Tides and Currents Weather Stations Pressure Air Temp Water Temp Dewpoint Dewpoint Depression Visibility Wind Speed Wind Dir Waves Ship Positions

Podhale (bahama Islands)

Last reported at 2015-Feb-21 17:31 UTC. Time now 2015-Mar-02 18:59 UTC.
Position N 36°45' E 026°27'.
Warning: this ship's position is 9 days out of date.

Length 190 m; beam 24 m.

Type: Cargo ship. MMSI: 311831000.

Date/timePositionNaut miles runAvg speedWind from/ knotsBaromVisibWave heightAir tempDewpointWater temp
2015-Feb-21 17:31N 36°45' E 026°27'3411.3
2015-Feb-21 14:32N 37°14' E 026°06'1211.2
2015-Feb-21 13:29N 37°25' E 025°59'242 9.3
2015-Feb-20 11:33N 40°53' E 028°38'1211.3
2015-Feb-20 10:30N 40°55' E 028°54'1511.1
2015-Feb-20 09:07N 41°09' E 029°03'710.0
2015-Feb-20 08:27N 41°15' E 029°08'9 0.9
2015-Feb-19 22:33N 41°23' E 029°04'1 0.8
2015-Feb-19 21:32N 41°23' E 029°04'1 0.8
2015-Feb-19 20:33N 41°24' E 029°05'1 0.9
2015-Feb-19 19:31N 41°25' E 029°05'3 0.9
2015-Feb-19 16:27N 41°22' E 029°06'4 4.3
2015-Feb-19 15:32N 41°26' E 029°08'1 0.2
2015-Feb-19 08:33N 41°25' E 029°09'2 2.2
2015-Feb-19 07:27N 41°22' E 029°09'328 8.4
2015-Feb-17 16:32N 46°35' E 031°26'10 9.4
2015-Feb-17 15:31N 46°36' E 031°39'9 9.8
2015-Feb-17 14:33N 46°37' E 031°53'8 8.4
2015-Feb-17 13:33N 46°46' E 031°54'4 4.2
2015-Feb-17 12:33N 46°50' E 031°55'0 0.0
2015-Feb-17 11:33N 46°50' E 031°55'0 0.0
2015-Feb-17 10:33N 46°50' E 031°55'1 0.9
2015-Feb-17 09:34N 46°50' E 031°56'2 1.8
2015-Feb-17 08:33N 46°51' E 031°59'0 0.0
2015-Feb-17 07:32N 46°51' E 031°59'0 0.0
2015-Feb-17 06:32N 46°51' E 031°59'0 0.0
2015-Feb-17 05:32N 46°51' E 031°59'0 0.0
2015-Feb-17 04:32N 46°51' E 031°59'0 0.0
2015-Feb-17 03:32N 46°51' E 031°59'0 0.0
2015-Feb-17 02:29N 46°51' E 031°59'0 0.0
2015-Feb-17 01:25N 46°51' E 031°59'0 0.0
2015-Feb-17 00:32N 46°51' E 031°59'0 0.0
2015-Feb-16 23:32N 46°51' E 031°59'0 0.0
2015-Feb-16 22:32N 46°51' E 031°59'0 0.0
2015-Feb-16 21:32N 46°51' E 031°59'0 0.0
2015-Feb-16 20:31N 46°51' E 031°59'0 0.0
2015-Feb-16 19:32N 46°51' E 031°59'0 0.0
2015-Feb-16 18:31N 46°51' E 031°59'0 0.0
2015-Feb-16 17:31N 46°51' E 031°59'0 0.0
2015-Feb-16 16:31N 46°51' E 031°59'0 0.0
2015-Feb-16 15:31N 46°51' E 031°59'0 0.0
2015-Feb-16 14:31N 46°51' E 031°59'0 0.0
2015-Feb-16 13:31N 46°51' E 031°59'0 0.0
2015-Feb-16 12:31N 46°51' E 031°59'0 0.0
2015-Feb-16 11:31N 46°51' E 031°59'0 0.0
2015-Feb-16 10:29N 46°51' E 031°59'0 0.0
2015-Feb-16 09:31N 46°51' E 031°59'0 0.0
2015-Feb-16 08:31N 46°51' E 031°59'0 0.0
2015-Feb-16 07:31N 46°51' E 031°59'0 0.0
2015-Feb-16 06:32N 46°51' E 031°59'0 0.0
2015-Feb-16 05:31N 46°51' E 031°59'0 0.0
2015-Feb-16 04:31N 46°51' E 031°59'0 0.0
2015-Feb-16 03:31N 46°51' E 031°59'0 0.0
2015-Feb-16 02:31N 46°51' E 031°59'0 0.0
2015-Feb-16 01:31N 46°51' E 031°59'0 0.0
2015-Feb-16 00:31N 46°51' E 031°59'0 0.0
2015-Feb-15 23:31N 46°51' E 031°59'0 0.0
2015-Feb-15 22:31N 46°51' E 031°59'0 0.0
2015-Feb-15 21:31N 46°51' E 031°59'0 0.0
2015-Feb-15 20:31N 46°51' E 031°59'0 0.0
2015-Feb-15 19:31N 46°51' E 031°59'0 0.0
2015-Feb-15 18:31N 46°51' E 031°59'0 0.0
2015-Feb-15 17:31N 46°51' E 031°59'0 0.0
2015-Feb-15 16:31N 46°51' E 031°59'0 0.0
2015-Feb-15 15:32N 46°51' E 031°59'0 0.0
2015-Feb-15 14:31N 46°51' E 031°59'0 0.0
2015-Feb-15 13:31N 46°51' E 031°59'0 0.0
2015-Feb-15 12:28N 46°51' E 031°59'0 0.0
2015-Feb-15 11:31N 46°51' E 031°59'0 0.0
2015-Feb-15 10:31N 46°51' E 031°59'0 0.0
2015-Feb-15 09:31N 46°51' E 031°59'0 0.0
2015-Feb-15 08:31N 46°51' E 031°59'0 0.0
2015-Feb-15 07:31N 46°51' E 031°59'0 0.0
2015-Feb-15 06:33N 46°51' E 031°59'4 3.5
2015-Feb-15 05:33N 46°49' E 031°55'1010.0
2015-Feb-15 04:34N 46°39' E 031°56'1111.4
2015-Feb-15 03:33N 46°36' E 031°40'1010.4
2015-Feb-15 02:33N 46°34' E 031°25'0 0.4
2015-Feb-15 01:22N 46°34' E 031°25'0 0.0
2015-Feb-15 00:28N 46°34' E 031°25'0 0.0
2015-Feb-14 23:28N 46°34' E 031°25'0 0.0
2015-Feb-14 22:28N 46°34' E 031°25'0 0.0
2015-Feb-14 21:31N 46°34' E 031°25'0 0.0
2015-Feb-14 20:25N 46°34' E 031°25'31110.8
2015-Feb-13 15:32N 41°37' E 029°19'1212.7
2015-Feb-13 14:33N 41°24' E 029°16'  

Dump ship's entire track history